Time;durP1;ratioP1;P1;durP2;ratioP2;P2;SDS_P1;SDS_P2;PMS_P1;PMS_P2;Temp;Humidity;BMP_temperature;BMP_pressure;BME280_temperature;BME280_humidity;BME280_pressure;Samples;Min_cycle;Max_cycle;Signal;HPM_P1;HPM_P2
2021/08/27 00:02:04;;;;;;;0.20;0.20;;;13.10;99.90;;;;;;5012649;28;20025;-92
2021/08/27 00:04:38;;;;;;;0.40;0.40;;;13.00;99.90;;;;;;5012581;28;20087;-91
2021/08/27 00:07:13;;;;;;;0.20;0.20;;;12.90;99.90;;;;;;5011521;28;20029;-92
2021/08/27 00:09:59;;;;;;;1.35;0.73;;;12.90;99.90;;;;;;5012639;28;20033;-92
2021/08/27 00:12:38;;;;;;;2.35;1.52;;;13.00;99.90;;;;;;5012378;28;20039;-92
2021/08/27 00:15:29;;;;;;;;;;;;;;;;;;;;;
2021/08/27 00:17:55;;;;;;;0.60;0.60;;;13.00;99.90;;;;;;5027187;28;20048;-92
2021/08/27 00:20:24;;;;;;;0.10;0.10;;;13.00;99.90;;;;;;5012064;28;20033;-92
2021/08/27 00:22:56;;;;;;;0.20;0.20;;;13.00;99.90;;;;;;5011233;28;20026;-92
2021/08/27 00:25:44;;;;;;;0.10;0.10;;;12.90;99.90;;;;;;5013744;28;20026;-91
2021/08/27 00:28:30;;;;;;;0.10;0.10;;;13.00;99.90;;;;;;5012053;28;20482;-92
2021/08/27 00:31:11;;;;;;;0.10;0.10;;;13.00;99.90;;;;;;5011924;28;20080;-92
2021/08/27 00:34:53;;;;;;;0.32;0.32;;;12.90;99.90;;;;;;5010999;28;20097;-92
2021/08/27 00:37:37;;;;;;;0.10;0.10;;;12.90;99.90;;;;;;4948744;29;20122;-92
2021/08/27 00:40:32;;;;;;;0.10;0.10;;;13.10;99.90;;;;;;4949269;29;20057;-92
2021/08/27 00:43:01;;;;;;;0.10;0.10;;;13.10;99.90;;;;;;4948594;29;20075;-92
2021/08/27 00:45:33;;;;;;;0.10;0.10;;;13.10;99.90;;;;;;4948769;29;20027;-92
2021/08/27 00:48:25;;;;;;;0.10;0.10;;;13.10;99.90;;;;;;4975518;28;20056;-91
2021/08/27 00:51:07;;;;;;;0.30;0.30;;;13.20;99.90;;;;;;5010923;28;20032;-92
2021/08/27 00:53:48;;;;;;;0.20;0.20;;;13.20;99.90;;;;;;5010726;28;20022;-92
2021/08/27 00:57:00;;;;;;;0.10;0.10;;;13.20;99.90;;;;;;5011514;28;20032;-91
2021/08/27 01:00:13;;;;;;;0.10;0.10;;;13.30;99.90;;;;;;5009999;28;20022;-91
2021/08/27 01:03:02;;;;;;;0.10;0.10;;;13.20;99.90;;;;;;4916239;28;20094;-91
2021/08/27 01:05:38;;;;;;;0.10;0.10;;;13.20;99.90;;;;;;5011303;28;20040;-92
2021/08/27 01:08:55;;;;;;;0.10;0.10;;;13.00;99.90;;;;;;5010728;28;20021;-92
2021/08/27 01:12:06;;;;;;;0.10;0.10;;;13.00;99.90;;;;;;5009131;28;20022;-91
2021/08/27 01:15:27;;;;;;;0.10;0.10;;;13.00;99.90;;;;;;5026757;28;20501;-91
2021/08/27 01:18:44;;;;;;;;;;;;;;;;;;;;;
2021/08/27 01:22:21;;;;;;;0.10;0.10;;;13.00;99.90;;;;;;4929621;29;20084;-90
2021/08/27 01:29:00;;;;;;;0.93;0.32;;;12.80;99.90;;;;;;4910226;29;20137;-91
2021/08/27 01:32:33;;;;;;;0.10;0.10;;;12.70;99.90;;;;;;4939073;28;20123;-91
2021/08/27 01:35:29;;;;;;;0.10;0.10;;;12.70;99.90;;;;;;5009463;28;20125;-91
2021/08/27 01:38:13;;;;;;;1.90;1.27;;;12.70;99.90;;;;;;5001658;28;20060;-92
2021/08/27 01:41:05;;;;;;;0.10;0.10;;;12.70;99.90;;;;;;5012067;28;20033;-92
2021/08/27 01:48:11;;;;;;;;;;;;;;;;;;;;;
2021/08/27 01:51:31;;;;;;;0.10;0.10;;;12.60;99.90;;;;;;5026280;28;20038;-91
2021/08/27 01:55:00;;;;;;;;;;;;;;;;;;;;;
2021/08/27 01:58:26;;;;;;;0.65;0.65;;;12.40;99.90;;;;;;4939041;28;20038;-92
2021/08/27 02:05:26;;;;;;;;;;;;;;;;;;;;;
2021/08/27 02:08:06;;;;;;;0.10;0.10;;;12.60;99.90;;;;;;4922822;29;20050;-91
2021/08/27 02:11:18;;;;;;;0.10;0.10;;;12.80;99.90;;;;;;4893135;29;20032;-91
2021/08/27 02:13:44;;;;;;;0.10;0.10;;;13.00;99.90;;;;;;4996946;23;20583;-74
2021/08/27 02:16:10;;;;;;;0.10;0.10;;;13.20;99.90;;;;;;5010877;28;20509;-73
2021/08/27 02:18:37;;;;;;;0.10;0.10;;;13.20;99.90;;;;;;5011980;28;20049;-74
2021/08/27 02:21:05;;;;;;;0.10;0.10;;;13.20;99.90;;;;;;5012040;28;20026;-73
2021/08/27 02:23:33;;;;;;;0.10;0.10;;;13.30;99.90;;;;;;5010556;28;20030;-73
2021/08/27 02:26:01;;;;;;;0.20;0.20;;;13.20;99.90;;;;;;5012164;28;20030;-73
2021/08/27 02:28:28;;;;;;;0.20;0.20;;;13.10;99.90;;;;;;4994106;28;20394;-74
2021/08/27 02:30:55;;;;;;;0.20;0.20;;;13.00;99.90;;;;;;4994120;28;20597;-74
2021/08/27 02:33:23;;;;;;;0.10;0.10;;;12.90;99.90;;;;;;5010461;28;20041;-73
2021/08/27 02:35:49;;;;;;;0.40;0.40;;;12.80;99.90;;;;;;5010621;28;20061;-74
2021/08/27 02:38:21;;;;;;;0.20;0.20;;;12.60;99.90;;;;;;4994026;28;20362;-74
2021/08/27 02:40:47;;;;;;;0.20;0.20;;;12.60;99.90;;;;;;5010637;28;20032;-74
2021/08/27 02:43:12;;;;;;;0.20;0.20;;;12.50;99.90;;;;;;5011480;28;20490;-74
2021/08/27 02:45:38;;;;;;;0.40;0.35;;;12.60;99.90;;;;;;4994314;28;20026;-73
2021/08/27 02:48:05;;;;;;;0.43;0.43;;;12.60;99.90;;;;;;5013837;28;20026;-74
2021/08/27 02:50:35;;;;;;;1.88;0.55;;;12.70;99.90;;;;;;4997771;28;20386;-74
2021/08/27 02:53:19;;;;;;;0.28;0.28;;;12.60;99.90;;;;;;5013961;28;20116;-73
2021/08/27 02:55:50;;;;;;;0.10;0.10;;;12.60;99.90;;;;;;4997859;28;20028;-74
2021/08/27 02:58:22;;;;;;;0.20;0.20;;;12.50;99.90;;;;;;5013839;28;20109;-74
2021/08/27 03:01:00;;;;;;;0.20;0.20;;;12.50;99.90;;;;;;5014168;28;20028;-74
2021/08/27 03:03:32;;;;;;;2.50;1.50;;;12.60;99.90;;;;;;5013800;28;20030;-74
2021/08/27 03:06:06;;;;;;;1.17;0.52;;;12.70;99.90;;;;;;5013728;28;20030;-74
2021/08/27 03:08:32;;;;;;;1.17;0.70;;;12.80;99.90;;;;;;5015287;28;20018;-74
2021/08/27 03:11:08;;;;;;;0.20;0.20;;;12.70;99.90;;;;;;5013982;28;20056;-74
2021/08/27 03:13:43;;;;;;;0.10;0.10;;;12.80;99.90;;;;;;5014816;28;20034;-74
2021/08/27 03:16:11;;;;;;;0.13;0.13;;;12.70;99.90;;;;;;5013723;28;20065;-74
2021/08/27 03:18:56;;;;;;;0.10;0.10;;;12.80;99.90;;;;;;5013443;28;20042;-74
2021/08/27 03:21:42;;;;;;;0.85;0.85;;;12.90;99.90;;;;;;5014989;28;20025;-74
2021/08/27 03:24:18;;;;;;;0.25;0.25;;;12.80;99.90;;;;;;5014740;28;20030;-74
2021/08/27 03:26:45;;;;;;;0.30;0.30;;;12.90;99.90;;;;;;5014711;28;20022;-74
2021/08/27 03:29:16;;;;;;;0.28;0.28;;;12.80;99.90;;;;;;5014565;28;20021;-74
2021/08/27 03:31:42;;;;;;;0.20;0.20;;;12.90;99.90;;;;;;5013360;28;20120;-74
2021/08/27 03:34:09;;;;;;;0.20;0.20;;;12.90;99.90;;;;;;5013194;28;20026;-74
2021/08/27 03:36:36;;;;;;;0.30;0.30;;;12.80;99.90;;;;;;5014306;28;20433;-74
2021/08/27 03:39:04;;;;;;;0.10;0.10;;;12.80;99.90;;;;;;4996802;28;20029;-74
2021/08/27 03:41:34;;;;;;;0.75;0.75;;;12.80;99.90;;;;;;5013439;28;20034;-74
2021/08/27 03:44:01;;;;;;;0.13;0.13;;;12.80;99.90;;;;;;5014205;28;20449;-74
2021/08/27 03:46:27;;;;;;;0.45;0.45;;;12.70;99.90;;;;;;5014256;28;20025;-74
2021/08/27 03:48:54;;;;;;;0.10;0.10;;;12.80;99.90;;;;;;5013042;28;20069;-74
2021/08/27 03:51:21;;;;;;;0.10;0.10;;;12.80;99.90;;;;;;5012960;28;20079;-74
2021/08/27 03:53:47;;;;;;;0.20;0.20;;;12.80;99.90;;;;;;5012952;28;20033;-74
2021/08/27 03:56:13;;;;;;;0.10;0.10;;;12.80;99.90;;;;;;5012761;28;20029;-74
2021/08/27 03:58:40;;;;;;;0.20;0.20;;;13.00;99.90;;;;;;5013526;28;20488;-74
2021/08/27 04:01:06;;;;;;;0.20;0.20;;;13.10;99.90;;;;;;4996364;28;20060;-74
2021/08/27 04:03:34;;;;;;;1.15;0.98;;;13.00;99.90;;;;;;5012669;28;20057;-74
2021/08/27 04:06:08;;;;;;;0.10;0.10;;;13.10;99.90;;;;;;5013759;28;20109;-74
2021/08/27 04:08:43;;;;;;;0.22;0.22;;;13.10;99.90;;;;;;5013996;28;20018;-74
2021/08/27 04:11:12;;;;;;;0.20;0.20;;;13.00;99.90;;;;;;5013797;28;20072;-74
2021/08/27 04:13:38;;;;;;;0.10;0.10;;;12.70;99.90;;;;;;4996386;28;20491;-74
2021/08/27 04:16:04;;;;;;;0.75;0.75;;;12.80;99.90;;;;;;5013800;28;20149;-74
2021/08/27 04:18:31;;;;;;;0.20;0.20;;;12.60;99.90;;;;;;5012553;28;20033;-74
2021/08/27 04:20:57;;;;;;;0.47;0.20;;;12.70;99.90;;;;;;5013741;28;20030;-74
2021/08/27 04:23:24;;;;;;;0.55;0.55;;;12.80;99.90;;;;;;5012241;28;20029;-74
2021/08/27 04:25:50;;;;;;;1.27;1.17;;;12.80;99.90;;;;;;5012566;28;20029;-74
2021/08/27 04:28:17;;;;;;;0.20;0.20;;;12.90;99.90;;;;;;5013533;28;20378;-74
2021/08/27 04:30:43;;;;;;;0.20;0.20;;;12.80;99.90;;;;;;5012176;28;20508;-74
2021/08/27 04:33:09;;;;;;;0.35;0.35;;;12.80;99.90;;;;;;5013532;28;20025;-75
2021/08/27 04:35:35;;;;;;;0.52;0.52;;;12.80;99.90;;;;;;5013217;28;20405;-74
2021/08/27 04:38:00;;;;;;;0.10;0.10;;;12.70;99.90;;;;;;5013477;28;20022;-74
2021/08/27 04:40:26;;;;;;;0.10;0.10;;;12.80;99.90;;;;;;5013008;28;20097;-74
2021/08/27 04:42:52;;;;;;;0.17;0.17;;;12.80;99.90;;;;;;5011952;28;20094;-75
2021/08/27 04:45:18;;;;;;;0.30;0.30;;;12.90;99.90;;;;;;5012925;28;20030;-75
2021/08/27 04:47:44;;;;;;;0.10;0.10;;;12.80;99.90;;;;;;5011961;28;20050;-75
2021/08/27 04:50:12;;;;;;;1.02;0.50;;;12.80;99.90;;;;;;5011611;28;20025;-75
2021/08/27 04:52:38;;;;;;;0.20;0.20;;;12.80;99.90;;;;;;4995361;28;20022;-75
2021/08/27 04:55:06;;;;;;;0.10;0.10;;;13.00;99.90;;;;;;5011498;28;20190;-74
2021/08/27 04:57:31;;;;;;;0.20;0.20;;;12.90;99.90;;;;;;5012972;28;20109;-75
2021/08/27 04:59:57;;;;;;;0.45;0.45;;;12.90;99.90;;;;;;5012862;28;20185;-75
2021/08/27 05:02:23;;;;;;;0.20;0.20;;;12.90;99.90;;;;;;5011582;28;20551;-75
2021/08/27 05:04:49;;;;;;;0.40;0.40;;;12.80;99.90;;;;;;5011522;28;20105;-75
2021/08/27 05:07:15;;;;;;;0.10;0.10;;;12.80;99.90;;;;;;5012815;28;20068;-74
2021/08/27 05:09:41;;;;;;;0.10;0.10;;;12.70;99.90;;;;;;5009945;28;20018;-76
2021/08/27 05:12:07;;;;;;;0.38;0.38;;;12.70;99.90;;;;;;5011684;28;20033;-75
2021/08/27 05:14:32;;;;;;;0.03;0.03;;;12.80;99.90;;;;;;5012078;28;20018;-74
2021/08/27 05:16:58;;;;;;;0.17;0.17;;;12.90;99.90;;;;;;5010936;28;20511;-75
2021/08/27 05:19:24;;;;;;;0.13;0.13;;;12.90;99.90;;;;;;4994768;28;20036;-74
2021/08/27 05:21:50;;;;;;;0.10;0.10;;;13.10;99.90;;;;;;5012403;28;20473;-75
2021/08/27 05:24:15;;;;;;;0.20;0.20;;;13.10;99.90;;;;;;5012073;28;20030;-75
2021/08/27 05:26:41;;;;;;;0.10;0.10;;;13.20;99.90;;;;;;5011899;28;20049;-75
2021/08/27 05:29:07;;;;;;;0.20;0.20;;;12.80;99.90;;;;;;5010973;28;20100;-75
2021/08/27 05:31:34;;;;;;;0.10;0.10;;;12.60;99.90;;;;;;5011857;28;20021;-75
2021/08/27 05:33:59;;;;;;;0.30;0.30;;;12.60;99.90;;;;;;5012188;28;20058;-74
2021/08/27 05:36:26;;;;;;;0.10;0.10;;;12.60;99.90;;;;;;5011844;28;20061;-75
2021/08/27 05:38:52;;;;;;;0.10;0.10;;;12.50;99.90;;;;;;5010969;28;20018;-75
2021/08/27 05:41:18;;;;;;;0.85;0.85;;;12.50;99.90;;;;;;5011791;28;20041;-77
2021/08/27 05:43:44;;;;;;;0.70;0.68;;;12.40;99.90;;;;;;5013156;28;20026;-79
2021/08/27 05:46:10;;;;;;;0.10;0.10;;;12.30;99.90;;;;;;5010929;28;20500;-75
2021/08/27 05:48:35;;;;;;;0.20;0.20;;;12.20;99.90;;;;;;5011962;28;20022;-75
2021/08/27 05:51:01;;;;;;;0.15;0.15;;;12.30;99.90;;;;;;5010287;28;20033;-75
2021/08/27 05:53:27;;;;;;;0.57;0.52;;;12.50;99.90;;;;;;5010256;28;20029;-74
2021/08/27 05:55:53;;;;;;;0.10;0.10;;;12.40;99.90;;;;;;5010121;28;20041;-75
2021/08/27 05:58:21;;;;;;;0.10;0.10;;;12.30;99.90;;;;;;5010480;28;20080;-74
2021/08/27 06:00:47;;;;;;;1.17;0.32;;;12.50;99.90;;;;;;5011585;28;20022;-75
2021/08/27 06:03:13;;;;;;;0.15;0.15;;;12.50;99.90;;;;;;5011396;28;20029;-75
2021/08/27 06:05:39;;;;;;;0.10;0.10;;;12.60;99.90;;;;;;5010388;28;20022;-74
2021/08/27 06:08:05;;;;;;;0.10;0.10;;;12.50;99.90;;;;;;5010250;28;20054;-74
2021/08/27 06:10:31;;;;;;;0.10;0.10;;;12.70;99.90;;;;;;4993835;28;20481;-75
2021/08/27 06:12:57;;;;;;;1.30;1.20;;;12.60;99.90;;;;;;4993702;28;20036;-75
2021/08/27 06:15:23;;;;;;;0.10;0.10;;;12.60;99.90;;;;;;5011321;28;20037;-75
2021/08/27 06:17:48;;;;;;;0.13;0.13;;;12.60;99.90;;;;;;5009642;28;20453;-75
2021/08/27 06:20:14;;;;;;;0.10;0.10;;;12.70;99.90;;;;;;5009719;28;20030;-75
2021/08/27 06:22:40;;;;;;;0.10;0.10;;;12.80;99.90;;;;;;5013591;28;20416;-75
2021/08/27 06:25:08;;;;;;;0.10;0.10;;;12.90;99.90;;;;;;5013498;28;20037;-75
2021/08/27 06:27:33;;;;;;;0.22;0.22;;;12.90;99.90;;;;;;5014958;28;20046;-75
2021/08/27 06:30:00;;;;;;;0.30;0.30;;;12.90;99.90;;;;;;5015043;28;20060;-75
2021/08/27 06:32:27;;;;;;;0.40;0.35;;;12.80;99.90;;;;;;5015012;28;20014;-75
2021/08/27 06:34:54;;;;;;;1.10;0.45;;;12.90;99.90;;;;;;5014833;28;20065;-75
2021/08/27 06:37:21;;;;;;;0.20;0.20;;;12.60;99.90;;;;;;5014730;28;20026;-75
2021/08/27 06:39:47;;;;;;;0.10;0.10;;;12.60;99.90;;;;;;5014307;28;20077;-75
2021/08/27 06:42:13;;;;;;;0.10;0.10;;;12.70;99.90;;;;;;5013882;28;20455;-75
2021/08/27 06:44:39;;;;;;;0.20;0.20;;;12.70;99.90;;;;;;5013949;28;20112;-75
2021/08/27 06:47:05;;;;;;;0.10;0.10;;;12.70;99.90;;;;;;5014951;28;20025;-75
2021/08/27 06:49:30;;;;;;;0.10;0.10;;;12.80;99.90;;;;;;4997110;28;20073;-75
2021/08/27 06:51:56;;;;;;;0.10;0.10;;;12.80;99.90;;;;;;5014945;28;20079;-75
2021/08/27 06:54:22;;;;;;;0.90;0.90;;;12.80;99.90;;;;;;4997385;28;20026;-74
2021/08/27 06:56:48;;;;;;;0.10;0.10;;;12.90;99.90;;;;;;5014574;28;20030;-75
2021/08/27 06:59:15;;;;;;;0.10;0.10;;;12.90;99.90;;;;;;5013677;28;20161;-76
2021/08/27 07:01:40;;;;;;;0.08;0.08;;;12.90;99.90;;;;;;5016601;28;20037;-78
2021/08/27 07:04:06;;;;;;;0.52;0.47;;;13.00;99.90;;;;;;5017943;28;20026;-77
2021/08/27 07:06:32;;;;;;;0.10;0.10;;;12.90;99.90;;;;;;5018329;28;20041;-77
2021/08/27 07:08:58;;;;;;;0.22;0.17;;;12.80;99.90;;;;;;5017857;28;20029;-77
2021/08/27 07:11:24;;;;;;;0.20;0.20;;;12.80;99.90;;;;;;5018592;28;20109;-77
2021/08/27 07:13:49;;;;;;;0.25;0.25;;;12.80;99.90;;;;;;5019982;28;20083;-77
2021/08/27 07:16:15;;;;;;;1.10;1.10;;;12.80;99.90;;;;;;5017882;28;20030;-77
2021/08/27 07:18:42;;;;;;;1.08;0.77;;;12.70;99.90;;;;;;5017884;28;20022;-77
2021/08/27 07:21:08;;;;;;;0.13;0.13;;;12.70;99.90;;;;;;5017915;28;20036;-77
2021/08/27 07:23:34;;;;;;;0.93;0.93;;;12.80;99.90;;;;;;5017939;28;20441;-77
2021/08/27 07:26:00;;;;;;;2.10;1.13;;;12.80;99.90;;;;;;5017813;28;20026;-77
2021/08/27 07:28:26;;;;;;;0.22;0.22;;;12.80;99.90;;;;;;5017042;28;20034;-77
2021/08/27 07:30:51;;;;;;;0.57;0.40;;;12.70;99.90;;;;;;5017566;28;20022;-77
2021/08/27 07:33:17;;;;;;;0.30;0.30;;;12.60;99.90;;;;;;5016855;28;20021;-77
2021/08/27 07:35:43;;;;;;;0.17;0.17;;;12.50;99.90;;;;;;5017073;28;20042;-76
2021/08/27 07:38:09;;;;;;;0.10;0.10;;;12.50;99.90;;;;;;5018846;28;20081;-77
2021/08/27 07:40:34;;;;;;;0.10;0.10;;;12.50;99.90;;;;;;5017520;28;20045;-77
2021/08/27 07:43:01;;;;;;;0.25;0.25;;;12.70;99.90;;;;;;5016205;28;20044;-77
2021/08/27 07:45:27;;;;;;;0.20;0.20;;;12.60;99.90;;;;;;5013902;28;20030;-77
2021/08/27 07:47:53;;;;;;;0.30;0.30;;;12.80;99.90;;;;;;4997362;28;20113;-76
2021/08/27 07:50:19;;;;;;;0.10;0.10;;;12.70;99.90;;;;;;5014862;28;20105;-77
2021/08/27 07:52:45;;;;;;;0.10;0.10;;;12.80;99.90;;;;;;4997529;28;20025;-77
2021/08/27 07:55:12;;;;;;;0.22;0.22;;;13.00;99.90;;;;;;5012835;28;20017;-75
2021/08/27 07:57:44;;;;;;;0.10;0.10;;;13.00;99.90;;;;;;4995925;28;20062;-75
2021/08/27 08:00:11;;;;;;;0.20;0.20;;;13.10;99.90;;;;;;5013948;28;20034;-75
2021/08/27 08:02:37;;;;;;;0.10;0.10;;;13.20;99.90;;;;;;4995905;28;20176;-76
2021/08/27 08:05:04;;;;;;;0.10;0.10;;;13.30;99.90;;;;;;5012632;28;20029;-76
2021/08/27 08:07:30;;;;;;;0.47;0.45;;;13.40;99.90;;;;;;5013162;28;20036;-76
2021/08/27 08:09:55;;;;;;;0.20;0.20;;;13.30;99.90;;;;;;5011796;28;20105;-76
2021/08/27 08:12:21;;;;;;;0.45;0.45;;;13.00;99.90;;;;;;4995226;28;20564;-76
2021/08/27 08:14:47;;;;;;;0.10;0.10;;;13.30;99.90;;;;;;4995902;28;20040;-76
2021/08/27 08:17:13;;;;;;;0.10;0.10;;;13.40;99.90;;;;;;5012364;28;20050;-76
2021/08/27 08:19:39;;;;;;;0.10;0.10;;;13.50;99.90;;;;;;5011230;28;20030;-76
2021/08/27 08:22:05;;;;;;;0.10;0.10;;;13.40;99.90;;;;;;5012686;28;20478;-76
2021/08/27 08:24:30;;;;;;;0.20;0.20;;;13.40;99.90;;;;;;5011049;28;20042;-76
2021/08/27 08:26:56;;;;;;;0.75;0.75;;;13.60;99.90;;;;;;5011964;28;20018;-76
2021/08/27 08:29:22;;;;;;;0.20;0.20;;;13.60;99.90;;;;;;5012388;28;20096;-77
2021/08/27 08:31:50;;;;;;;0.10;0.10;;;13.60;99.90;;;;;;5010946;28;20030;-76
2021/08/27 08:34:16;;;;;;;1.10;1.10;;;13.50;99.90;;;;;;5011277;28;20029;-77
2021/08/27 08:36:42;;;;;;;0.10;0.10;;;13.60;99.90;;;;;;5011968;28;20034;-77
2021/08/27 08:39:07;;;;;;;0.30;0.30;;;13.60;99.90;;;;;;5011295;28;20034;-76
2021/08/27 08:41:33;;;;;;;0.15;0.15;;;13.50;99.90;;;;;;4995055;28;20037;-76
2021/08/27 08:43:59;;;;;;;0.30;0.30;;;13.40;99.90;;;;;;5011679;28;20029;-76
2021/08/27 08:46:26;;;;;;;0.20;0.20;;;13.40;99.90;;;;;;5011295;28;20440;-76
2021/08/27 08:48:53;;;;;;;0.93;0.88;;;13.60;99.90;;;;;;5012067;28;20046;-77
2021/08/27 08:51:23;;;;;;;0.10;0.10;;;13.30;99.90;;;;;;5012843;28;20029;-76
2021/08/27 08:53:49;;;;;;;0.20;0.20;;;13.20;99.90;;;;;;5011049;28;20033;-76
2021/08/27 08:56:17;;;;;;;2.45;2.00;;;13.40;99.90;;;;;;5013631;28;20048;-76
2021/08/27 08:58:43;;;;;;;0.73;0.73;;;13.30;99.90;;;;;;5010640;28;20148;-77
2021/08/27 09:01:18;;;;;;;0.10;0.10;;;13.00;99.90;;;;;;4994850;28;20061;-77
2021/08/27 09:03:46;;;;;;;0.17;0.17;;;13.30;99.90;;;;;;5010874;28;20026;-77
2021/08/27 09:06:12;;;;;;;0.65;0.65;;;13.10;99.90;;;;;;5011182;28;20022;-77
2021/08/27 09:08:42;;;;;;;0.20;0.20;;;13.10;99.90;;;;;;5011324;28;20037;-76
2021/08/27 09:11:19;;;;;;;3.95;1.38;;;13.10;99.90;;;;;;5010333;28;20413;-76
2021/08/27 09:13:47;;;;;;;0.60;0.55;;;13.30;99.90;;;;;;5011031;28;20034;-76
2021/08/27 09:16:14;;;;;;;0.20;0.20;;;13.30;99.90;;;;;;5011029;28;20091;-76
2021/08/27 09:18:48;;;;;;;0.38;0.38;;;13.30;99.90;;;;;;4994371;28;20089;-76
2021/08/27 09:21:40;;;;;;;2.30;1.15;;;13.10;99.90;;;;;;5012124;28;20052;-77
2021/08/27 09:24:09;;;;;;;0.30;0.30;;;13.00;99.90;;;;;;4991597;28;20030;-77
2021/08/27 09:26:36;;;;;;;0.17;0.17;;;13.00;99.90;;;;;;5010838;28;20788;-77
2021/08/27 09:29:02;;;;;;;0.10;0.10;;;13.30;99.90;;;;;;5010879;28;20029;-76
2021/08/27 09:31:35;;;;;;;0.43;0.43;;;13.40;99.90;;;;;;5006504;28;20027;-77
2021/08/27 09:34:01;;;;;;;0.10;0.10;;;13.40;99.90;;;;;;5011875;28;20104;-77
2021/08/27 09:36:29;;;;;;;0.47;0.47;;;13.40;99.90;;;;;;5011944;28;20295;-77
2021/08/27 09:39:10;;;;;;;2.45;1.70;;;13.30;99.90;;;;;;5011999;28;20413;-77
2021/08/27 09:41:36;;;;;;;0.20;0.20;;;13.30;99.90;;;;;;5008114;28;20436;-76
2021/08/27 09:44:03;;;;;;;0.47;0.47;;;13.30;99.90;;;;;;5011349;28;20026;-76
2021/08/27 09:46:33;;;;;;;0.40;0.40;;;13.50;99.90;;;;;;5010718;28;20477;-76
2021/08/27 09:49:00;;;;;;;1.45;0.80;;;13.60;99.90;;;;;;5009723;28;20367;-76
2021/08/27 09:51:41;;;;;;;0.75;0.75;;;13.50;99.90;;;;;;5011743;28;20028;-75
2021/08/27 09:54:07;;;;;;;0.10;0.10;;;13.70;99.90;;;;;;5012090;28;20766;-77
2021/08/27 09:56:47;;;;;;;0.10;0.10;;;13.90;99.90;;;;;;5012612;28;20030;-77
2021/08/27 09:59:13;;;;;;;0.30;0.30;;;14.00;99.90;;;;;;5058309;23;20026;-92
2021/08/27 10:01:51;;;;;;;0.10;0.10;;;14.00;99.90;;;;;;4983018;28;20487;-93
2021/08/27 10:04:30;;;;;;;0.10;0.10;;;14.10;99.90;;;;;;4985500;28;20034;-93
2021/08/27 10:06:58;;;;;;;0.32;0.32;;;14.20;99.90;;;;;;4984346;28;20064;-93
2021/08/27 10:09:43;;;;;;;0.22;0.22;;;14.20;99.90;;;;;;4983257;28;20026;-93
2021/08/27 10:12:09;;;;;;;1.13;1.00;;;14.10;99.90;;;;;;4990037;28;20049;-93
2021/08/27 10:14:36;;;;;;;0.35;0.35;;;13.90;99.90;;;;;;4984275;28;20029;-93
2021/08/27 10:17:03;;;;;;;0.20;0.20;;;13.90;99.90;;;;;;4984429;28;20028;-93
2021/08/27 10:19:37;;;;;;;0.10;0.10;;;13.80;99.90;;;;;;4984073;28;20048;-92
2021/08/27 10:22:03;;;;;;;0.20;0.20;;;13.80;99.90;;;;;;4982176;28;20148;-92
2021/08/27 10:24:29;;;;;;;0.55;0.55;;;13.60;99.90;;;;;;4982617;28;20026;-92
2021/08/27 10:26:55;;;;;;;0.10;0.10;;;13.60;99.90;;;;;;4983435;28;20037;-92
2021/08/27 10:29:21;;;;;;;0.10;0.10;;;13.80;99.90;;;;;;4982721;28;20398;-92
2021/08/27 10:31:50;;;;;;;0.63;0.63;;;13.80;99.90;;;;;;4982911;28;20022;-92
2021/08/27 10:34:48;;;;;;;1.40;1.02;;;13.90;99.90;;;;;;4982858;28;20054;-91
2021/08/27 10:37:43;;;;;;;1.08;0.80;;;13.60;99.90;;;;;;4982238;28;20030;-91
2021/08/27 10:40:27;;;;;;;0.10;0.10;;;13.20;99.90;;;;;;4982570;28;20026;-92
2021/08/27 10:42:53;;;;;;;1.27;0.43;;;13.00;99.90;;;;;;4982072;28;20030;-92
2021/08/27 10:45:30;;;;;;;0.50;0.50;;;12.90;99.90;;;;;;4982241;28;20104;-92
2021/08/27 10:48:24;;;;;;;0.20;0.20;;;13.10;99.90;;;;;;4981880;28;20426;-92
2021/08/27 10:50:54;;;;;;;0.63;0.63;;;13.20;99.90;;;;;;4982159;28;20475;-92
2021/08/27 10:53:25;;;;;;;0.20;0.20;;;13.30;99.90;;;;;;4982258;28;20022;-92
2021/08/27 10:55:53;;;;;;;0.20;0.20;;;13.30;99.90;;;;;;4982509;28;20029;-92
2021/08/27 10:58:24;;;;;;;0.20;0.20;;;13.50;99.90;;;;;;4981312;28;20026;-92
2021/08/27 11:00:53;;;;;;;0.55;0.32;;;13.80;99.90;;;;;;4981669;28;20029;-91
2021/08/27 11:03:21;;;;;;;0.57;0.55;;;13.70;99.90;;;;;;4981941;28;20030;-91
2021/08/27 11:05:49;;;;;;;0.50;0.50;;;13.70;99.90;;;;;;4982273;28;20188;-92
2021/08/27 11:08:31;;;;;;;0.10;0.10;;;13.70;99.90;;;;;;4981148;28;20022;-92
2021/08/27 11:11:15;;;;;;;0.30;0.30;;;13.80;99.90;;;;;;4982257;28;20113;-91
2021/08/27 11:13:42;;;;;;;0.22;0.22;;;14.00;99.90;;;;;;4981502;28;20664;-92
2021/08/27 11:16:23;;;;;;;0.45;0.45;;;14.10;99.90;;;;;;4980882;28;20125;-92
2021/08/27 11:18:50;;;;;;;0.15;0.15;;;14.30;99.90;;;;;;4980908;28;20030;-91
2021/08/27 11:21:31;;;;;;;0.65;0.40;;;14.20;99.90;;;;;;4981650;28;20033;-91
2021/08/27 11:24:16;;;;;;;0.77;0.38;;;14.20;99.90;;;;;;4981002;28;20465;-91
2021/08/27 11:26:47;;;;;;;3.92;0.93;;;13.90;99.90;;;;;;4981699;28;20395;-91
2021/08/27 11:29:32;;;;;;;2.15;0.32;;;13.90;99.90;;;;;;4981187;28;20482;-91
2021/08/27 11:32:25;;;;;;;0.77;0.77;;;13.90;99.90;;;;;;4981235;28;20026;-91
2021/08/27 11:35:07;;;;;;;0.10;0.10;;;13.90;99.90;;;;;;4995807;28;20034;-91
2021/08/27 11:37:49;;;;;;;0.10;0.10;;;14.00;99.90;;;;;;4981500;28;20025;-92
2021/08/27 11:40:14;;;;;;;0.10;0.10;;;14.30;99.90;;;;;;4980943;28;20029;-90
2021/08/27 11:42:43;;;;;;;1.30;0.85;;;14.20;99.90;;;;;;4983631;28;20030;-91
2021/08/27 11:45:15;;;;;;;2.30;2.05;;;14.00;99.90;;;;;;4983728;28;20498;-91
2021/08/27 11:47:45;;;;;;;0.40;0.40;;;13.90;99.90;;;;;;4981394;28;20029;-91
2021/08/27 11:50:12;;;;;;;2.88;0.93;;;13.70;99.90;;;;;;4981603;28;20340;-91
2021/08/27 11:52:40;;;;;;;0.25;0.25;;;13.50;99.90;;;;;;4980780;28;20100;-92
2021/08/27 11:55:18;;;;;;;0.43;0.43;;;13.50;99.90;;;;;;4980988;28;20037;-91
2021/08/27 11:58:02;;;;;;;0.80;0.80;;;13.60;99.90;;;;;;4983961;28;20025;-91
2021/08/27 12:00:31;;;;;;;0.13;0.13;;;13.70;99.90;;;;;;4980629;28;20034;-90
2021/08/27 12:02:57;;;;;;;0.10;0.10;;;13.80;99.90;;;;;;4982440;28;20072;-91
2021/08/27 12:05:24;;;;;;;0.68;0.57;;;13.90;99.90;;;;;;4980814;28;20029;-92
2021/08/27 12:07:56;;;;;;;0.50;0.50;;;14.00;99.90;;;;;;4980728;28;20041;-91
2021/08/27 12:10:23;;;;;;;0.30;0.30;;;14.00;99.90;;;;;;4979752;28;20036;-91
2021/08/27 12:16:14;;;;;;;0.15;0.15;;;14.10;99.90;;;;;;4996645;28;20057;-91
2021/08/27 12:18:41;;;;;;;2.53;1.25;;;14.20;99.90;;;;;;4980634;28;20045;-91
2021/08/27 12:21:07;;;;;;;0.80;0.70;;;14.30;99.90;;;;;;4984852;28;20022;-91
2021/08/27 12:23:38;;;;;;;0.22;0.22;;;14.20;99.90;;;;;;5016008;28;20030;-90
2021/08/27 12:26:10;;;;;;;0.63;0.45;;;14.10;99.90;;;;;;4980760;28;20061;-90
2021/08/27 12:28:38;;;;;;;2.10;1.77;;;14.20;99.90;;;;;;4981240;28;20120;-91
2021/08/27 12:31:08;;;;;;;0.20;0.20;;;14.50;99.90;;;;;;4980830;28;20033;-91
2021/08/27 12:33:41;;;;;;;1.05;0.95;;;14.60;99.90;;;;;;4980823;28;20034;-92
2021/08/27 12:36:12;;;;;;;1.77;0.63;;;14.60;99.90;;;;;;4980998;28;20029;-91
2021/08/27 12:38:47;;;;;;;0.52;0.52;;;14.60;99.90;;;;;;4981119;28;20403;-91
2021/08/27 12:41:16;;;;;;;0.10;0.10;;;14.60;99.90;;;;;;4980692;28;20092;-91
2021/08/27 12:43:43;;;;;;;0.10;0.10;;;14.60;99.90;;;;;;4981175;28;20453;-91
2021/08/27 12:46:08;;;;;;;0.20;0.20;;;14.70;99.90;;;;;;4981565;28;20022;-91
2021/08/27 12:48:50;;;;;;;;;;;;;;;;;;;;;
2021/08/27 12:51:23;;;;;;;0.40;0.40;;;14.30;99.90;;;;;;5016355;28;20033;-91
2021/08/27 12:53:57;;;;;;;0.20;0.20;;;14.30;99.90;;;;;;4981191;28;20026;-91
2021/08/27 12:56:23;;;;;;;0.40;0.40;;;14.40;99.90;;;;;;4980260;28;20073;-91
2021/08/27 12:58:51;;;;;;;0.10;0.10;;;14.10;99.90;;;;;;4980605;28;20026;-91
2021/08/27 13:01:26;;;;;;;0.10;0.10;;;13.90;99.90;;;;;;4979947;28;20062;-90
2021/08/27 13:03:54;;;;;;;0.75;0.30;;;13.80;99.90;;;;;;4980876;28;20454;-90
2021/08/27 13:06:35;;;;;;;0.63;0.63;;;13.80;99.90;;;;;;4980119;28;20026;-91
2021/08/27 13:09:07;;;;;;;0.25;0.25;;;13.70;99.90;;;;;;4979684;28;20030;-91
2021/08/27 13:12:00;;;;;;;0.52;0.52;;;13.50;99.90;;;;;;4979724;28;20022;-91
2021/08/27 13:14:27;;;;;;;1.23;0.98;;;13.50;99.90;;;;;;4976717;28;20026;-91
2021/08/27 13:17:15;;;;;;;0.20;0.20;;;13.60;99.90;;;;;;4980226;28;20546;-90
2021/08/27 13:19:56;;;;;;;3.65;2.00;;;13.40;99.90;;;;;;4979588;28;20030;-91
2021/08/27 13:22:26;;;;;;;2.58;1.42;;;13.30;99.90;;;;;;4979761;28;20034;-91
2021/08/27 13:25:08;;;;;;;0.93;0.93;;;13.40;99.90;;;;;;4979908;28;20061;-89
2021/08/27 13:27:38;;;;;;;;;;;13.30;99.90;;;;;;4979854;28;20180;-91
2021/08/27 13:30:08;;;;;;;1.00;0.90;;;13.20;99.90;;;;;;4978878;28;19905;-91
2021/08/27 13:33:05;;;;;;;2.40;1.27;;;13.30;99.90;;;;;;4980110;28;20029;-90
2021/08/27 13:35:31;;;;;;;2.65;1.27;;;13.20;99.90;;;;;;4994746;28;20061;-90
2021/08/27 13:37:56;;;;;;;0.90;0.75;;;13.40;99.90;;;;;;4979725;28;20057;-90